Track Сазыкин Герман

Time Latitude Longitude Accuracy (66% radius in meters) Altitude (meters) Speed (km/hour) Bearing (degrees) Battery (%) GPS flag
08:55:34 60.370938 29.556294 6 75.631891758199 0.19689066708088 250.14668273926 90 1 delete
08:55:22 60.370919 29.556243 6 76.073095423123 0.25596249103546 250.14668273926 90 1 delete
08:55:10 60.370943 29.556173 6 74.619072321377 0.027130328118801 32.260078430176 90 1 delete
08:54:58 60.370945 29.556150 6 73.477415284913 0.038509082049131 32.260078430176 90 1 delete
08:54:46 60.370970 29.556241 8 72.799820278597 0.45047563314438 32.260078430176 90 1 delete
08:54:40 60.370965 29.556238 6 72.680839667428 0.16056473553181 271.60913085938 90 1 delete
08:54:34 60.370936 29.556233 6 72.697939907339 0.019436158239841 271.60913085938 90 1 delete
08:54:25 60.370919 29.556261 8 72.902113278737 0.12854243814945 148.96409606934 90 1 delete
08:54:13 60.370944 29.556394 6 73.584503745725 0.038815680891275 54.297817230225 90 1 delete
08:54:01 60.370926 29.556442 8 75.863273385337 0.031767331063747 350.60119628906 90 1 delete
08:53:49 60.370923 29.556413 6 78.260143576818 0.046456206589937 124.27097320557 90 1 delete
08:53:37 60.370949 29.556339 8 79.692774185526 0.21634279191494 249.21586608887 90 1 delete
08:53:31 60.370959 29.556326 8 79.715133929622 0.30035057663918 249.21586608887 90 1 delete
08:53:28 60.370976 29.556340 6 79.895864330767 0.22646556794643 267.35317993164 90 1 delete
08:53:16 60.371001 29.556368 8 79.675315315998 0.065136544406414 285.5510559082 90 1 delete
08:53:10 60.371002 29.556385 4 79.551036419023 0.19568520784378 285.5510559082 90 1 delete
08:53:04 60.370993 29.556353 6 79.821846610941 0.029615364968777 101.93898773193 90 1 delete
08:52:52 60.370987 29.556294 6 79.720937603944 0.043921396136284 287.33193969727 90 1 delete
08:52:43 60.371000 29.556297 4 80.107600879429 0.17260566353798 13.268542289734 90 1 delete
08:52:31 60.371005 29.556312 8 79.315217317582 0.034844025969505 348.95547485352 90 1 delete
08:52:19 60.371008 29.556324 6 76.698374316917 0.044596686959267 31.804552078247 90 1 delete
08:52:07 60.370988 29.556295 8 73.422338612276 0.29173362255096 13.437786102295 90 1 delete
08:51:55 60.370971 29.556321 12 70.688765144348 0.4904505610466 347.39343261719 90 1 delete
08:51:46 60.370962 29.556308 6 69.962999208968 0.047491982579231 223.13429260254 90 1 delete
08:51:34 60.370948 29.556350 6 70.107866455056 0.13830024003983 31.071723937988 90 1 delete
08:51:31 60.370943 29.556347 8 70.740519384668 0.026292907074094 31.071723937988 90 1 delete
08:51:22 60.370913 29.556362 6 71.752306702683 0.12372975051403 50.949024200439 90 1 delete
08:51:10 60.370901 29.556434 8 72.784695860753 0.14045365154743 50.644866943359 90 1 delete
08:50:58 60.370895 29.556357 8 73.039183997684 0.044811688363552 50.644866943359 90 1 delete
08:50:49 60.370916 29.556298 8 71.365952396613 0.11969419568777 84.206581115723 90 1 delete
08:50:46 60.370929 29.556282 16 71.391309108519 0.14238323271275 84.206581115723 90 1 delete
08:50:37 60.370977 29.556321 6 71.536160005969 0.10197364538908 177.63121032715 90 1 delete
08:50:25 60.370970 29.556303 6 71.360783571472 0.13845135271549 247.36517333984 90 1 delete
08:50:22 60.370971 29.556327 6 71.344358649547 0.16943018138409 247.36517333984 90 1 delete
08:50:13 60.370994 29.556424 6 71.961262892775 0.015187177807093 116.80535888672 90 1 delete
08:50:04 60.371009 29.556431 6 72.244673571992 0.24617677927017 347.52392578125 90 1 delete
08:49:58 60.371002 29.556406 6 72.657815210497 0.37065160274506 357.65487670898 90 1 delete
08:49:52 60.370969 29.556364 6 72.926813111175 0.038737822324038 25.468545913696 90 1 delete
08:49:40 60.370959 29.556353 6 74.358865751115 0.11906035989523 273.54794311523 90 1 delete
08:49:28 60.370965 29.556382 6 74.97953456042 0.20844097435474 273.54794311523 90 1 delete
08:49:16 60.370978 29.556349 6 75.143202228637 0.021361472085118 24.919355392456 90 1 delete
08:49:07 60.370978 29.556338 8 75.46931351306 0.52215206623077 9.0611114501953 90 1 delete
08:48:55 60.370926 29.556363 6 75.287657120482 0.02321308478713 139.34411621094 90 1 delete
08:48:43 60.370927 29.556388 8 75.406031015374 0.15046852827072 139.34411621094 90 1 delete
08:48:40 60.370946 29.556395 6 75.417401845396 0.01730508543551 139.34411621094 90 1 delete
08:48:31 60.371001 29.556513 12 75.884246734475 0.16029711067677 106.7328414917 90 1 delete
08:48:19 60.370983 29.556476 6 77.27111363019 0.046349335461855 207.52258300781 90 1 delete
08:48:10 60.370952 29.556408 6 79.311670479087 0.032879769802094 318.83435058594 90 1 delete
08:48:07 60.370963 29.556384 8 79.885437124721 0.19755546748638 323.97839355469 90 1 delete
08:47:58 60.371000 29.556359 4 81.299413029099 0.02499670162797 242.83862304688 90 1 delete